createdAt,value
2024-05-09T00:00:30.547Z,12.05
2024-05-09T00:01:23.915Z,12.05
2024-05-09T00:02:24.015Z,12.07
2024-05-09T00:03:23.921Z,12.04
2024-05-09T00:04:23.927Z,12.03
2024-05-09T00:05:24.015Z,12.04
2024-05-09T00:06:23.840Z,12.03
2024-05-09T00:07:23.845Z,12.03
2024-05-09T00:08:23.914Z,12.03
2024-05-09T00:09:23.888Z,12.01
2024-05-09T00:10:32.649Z,12.03
2024-05-09T00:11:23.916Z,12.01
2024-05-09T00:12:23.894Z,12.01
2024-05-09T00:13:23.862Z,12.00
2024-05-09T00:14:23.917Z,12.01
2024-05-09T00:15:23.753Z,12.00
2024-05-09T00:16:23.743Z,12.00
2024-05-09T00:18:23.903Z,12.00
2024-05-09T00:19:23.766Z,12.00
2024-05-09T00:20:28.616Z,11.97
2024-05-09T00:21:23.694Z,11.98
2024-05-09T00:22:23.689Z,11.97
2024-05-09T00:23:23.778Z,11.97
2024-05-09T00:24:23.710Z,11.96
2024-05-09T00:25:23.690Z,11.96
2024-05-09T00:26:23.715Z,11.97
2024-05-09T00:27:23.684Z,11.97
2024-05-09T00:28:23.728Z,11.96
2024-05-09T00:29:23.747Z,11.94
2024-05-09T00:30:31.665Z,11.88
2024-05-09T00:31:23.648Z,11.87
2024-05-09T00:32:23.784Z,11.87
2024-05-09T00:33:23.876Z,11.84
2024-05-09T00:34:23.690Z,11.82
2024-05-09T00:35:23.731Z,11.82
2024-05-09T00:36:23.564Z,11.81
2024-05-09T00:37:23.571Z,11.78
2024-05-09T00:38:23.661Z,11.77
2024-05-09T00:39:23.572Z,11.75
2024-05-09T00:40:34.694Z,11.75
2024-05-09T00:41:23.607Z,11.70
2024-05-09T00:42:23.586Z,11.67
2024-05-09T00:43:23.479Z,11.67
2024-05-09T00:44:23.620Z,11.66
2024-05-09T00:45:23.463Z,11.63
2024-05-09T00:46:23.512Z,11.63
2024-05-09T00:47:23.521Z,11.60
2024-05-09T00:48:23.627Z,11.60
2024-05-09T00:49:23.517Z,11.59
2024-05-09T00:50:29.944Z,11.54
2024-05-09T00:51:23.480Z,11.51
2024-05-09T00:52:23.407Z,11.46
2024-05-09T00:53:23.466Z,11.46
2024-05-09T00:54:23.376Z,11.42
2024-05-09T00:55:23.375Z,11.38
2024-05-09T00:56:23.415Z,11.38
2024-05-09T00:57:23.344Z,11.33
2024-05-09T00:58:23.395Z,11.35
2024-05-09T00:59:23.342Z,11.30
2024-05-09T01:00:31.457Z,11.28
2024-05-09T01:01:23.355Z,11.23
2024-05-09T01:02:23.408Z,11.23
2024-05-09T01:03:23.474Z,11.19
2024-05-09T01:04:23.338Z,11.16
2024-05-09T01:05:23.323Z,11.16
2024-05-09T01:06:23.258Z,11.13
2024-05-09T01:07:23.253Z,11.13
2024-05-09T01:08:23.307Z,11.19
2024-05-09T01:09:23.282Z,11.20
2024-05-09T01:10:28.210Z,11.19
2024-05-09T01:11:23.366Z,11.16
2024-05-09T01:12:23.324Z,11.09
2024-05-09T01:13:23.208Z,11.06
2024-05-09T01:14:23.345Z,11.01
2024-05-09T01:15:23.188Z,10.98
2024-05-09T01:16:23.190Z,10.93
2024-05-09T01:17:23.301Z,10.90
2024-05-09T01:18:23.304Z,10.87
2024-05-09T01:19:23.422Z,10.81
2024-05-09T01:20:32.007Z,10.80
2024-05-09T01:21:23.148Z,10.76
2024-05-09T01:22:23.114Z,10.72
2024-05-09T01:23:23.281Z,10.70
2024-05-09T01:24:23.134Z,10.68
2024-05-09T01:25:23.078Z,10.66
2024-05-09T01:26:23.136Z,10.66
2024-05-09T01:27:23.059Z,10.60
2024-05-09T01:28:23.081Z,10.58
2024-05-09T01:29:23.137Z,10.55
2024-05-09T01:30:31.269Z,10.55
2024-05-09T01:31:23.020Z,10.54
2024-05-09T01:32:23.236Z,10.55
2024-05-09T01:33:23.292Z,10.55
2024-05-09T01:34:23.026Z,10.57
2024-05-09T01:35:23.056Z,10.57
2024-05-09T01:36:22.984Z,10.54
2024-05-09T01:37:23.084Z,10.54
2024-05-09T01:38:23.180Z,10.52
2024-05-09T01:39:22.954Z,10.49
2024-05-09T01:40:32.708Z,10.49
2024-05-09T01:41:22.971Z,10.46
2024-05-09T01:42:23.019Z,10.39
2024-05-09T01:43:22.897Z,10.36
2024-05-09T01:44:23.079Z,10.32
2024-05-09T01:45:22.883Z,10.29
2024-05-09T01:46:23.084Z,10.29
2024-05-09T01:47:23.186Z,10.24
2024-05-09T01:48:23.038Z,10.22
2024-05-09T01:49:23.005Z,10.22
2024-05-09T01:50:34.157Z,10.22
2024-05-09T01:51:22.904Z,10.20
2024-05-09T01:52:23.073Z,10.18
2024-05-09T01:53:22.875Z,10.17
2024-05-09T01:54:22.805Z,10.18
2024-05-09T01:55:22.800Z,10.17
2024-05-09T01:56:22.956Z,10.16
2024-05-09T01:57:22.776Z,10.13
2024-05-09T01:58:22.824Z,10.10
2024-05-09T01:59:22.869Z,10.09
2024-05-09T02:00:33.229Z,10.07
2024-05-09T02:01:22.868Z,10.02
2024-05-09T02:02:22.830Z,10.01
2024-05-09T02:03:22.966Z,9.98
2024-05-09T02:04:22.813Z,9.95
2024-05-09T02:05:22.965Z,9.93
2024-05-09T02:06:22.718Z,9.89
2024-05-09T02:07:22.708Z,9.88
2024-05-09T02:08:22.770Z,9.83
2024-05-09T02:09:22.669Z,9.81
2024-05-09T02:10:26.622Z,9.80
2024-05-09T02:11:22.739Z,9.81
2024-05-09T02:12:22.767Z,9.80
2024-05-09T02:13:22.633Z,9.83
2024-05-09T02:14:22.694Z,9.83
2024-05-09T02:15:22.680Z,9.83
2024-05-09T02:16:22.594Z,9.83
2024-05-09T02:17:22.871Z,9.83
2024-05-09T02:18:22.747Z,9.83
2024-05-09T02:19:22.896Z,9.83
2024-05-09T02:20:30.704Z,9.86
2024-05-09T02:21:22.546Z,9.85
2024-05-09T02:22:22.550Z,9.85
2024-05-09T02:23:22.590Z,9.81
2024-05-09T02:24:22.570Z,9.80
2024-05-09T02:25:22.513Z,9.80
2024-05-09T02:26:22.567Z,9.75
2024-05-09T02:27:22.484Z,9.75
2024-05-09T02:28:22.550Z,9.75
2024-05-09T02:29:22.610Z,9.73
2024-05-09T02:30:30.127Z,9.71
2024-05-09T02:31:22.444Z,9.70
2024-05-09T02:32:22.531Z,9.71
2024-05-09T02:33:22.783Z,9.71
2024-05-09T02:34:22.814Z,9.68
2024-05-09T02:35:22.430Z,9.65
2024-05-09T02:36:22.408Z,9.63
2024-05-09T02:37:22.413Z,9.60
2024-05-09T02:38:22.434Z,9.60
2024-05-09T02:39:22.364Z,9.59
2024-05-09T02:40:29.213Z,9.58
2024-05-09T02:41:22.434Z,9.58
2024-05-09T02:42:22.449Z,9.58
2024-05-09T02:43:22.356Z,9.56
2024-05-09T02:44:22.473Z,9.53
2024-05-09T02:45:22.279Z,9.52
2024-05-09T02:46:22.254Z,9.49
2024-05-09T02:47:22.742Z,9.49
2024-05-09T02:48:22.408Z,9.45
2024-05-09T02:49:22.337Z,9.44
2024-05-09T02:50:29.935Z,9.42
2024-05-09T02:51:22.218Z,9.42
2024-05-09T02:52:22.228Z,9.40
2024-05-09T02:53:22.226Z,9.38
2024-05-09T02:54:22.186Z,9.37
2024-05-09T02:55:22.170Z,9.37
2024-05-09T02:56:22.285Z,9.34
2024-05-09T02:57:22.162Z,9.34
2024-05-09T02:58:22.153Z,9.31
2024-05-09T02:59:22.325Z,9.30
2024-05-09T03:00:29.447Z,9.31
2024-05-09T03:01:22.220Z,9.27
2024-05-09T03:02:22.312Z,9.27
2024-05-09T03:03:22.425Z,9.26
2024-05-09T03:04:22.149Z,9.23
2024-05-09T03:05:22.190Z,9.19
2024-05-09T03:06:22.190Z,9.20
2024-05-09T03:07:22.048Z,9.19
2024-05-09T03:08:22.182Z,9.19
2024-05-09T03:09:22.034Z,9.17
2024-05-09T03:10:25.712Z,9.16
2024-05-09T03:11:22.186Z,9.15
2024-05-09T03:12:22.057Z,9.13
2024-05-09T03:13:22.085Z,9.13
2024-05-09T03:14:22.107Z,9.13
2024-05-09T03:15:22.023Z,9.10
2024-05-09T03:16:21.965Z,9.08
2024-05-09T03:17:22.121Z,9.04
2024-05-09T03:18:22.094Z,9.01
2024-05-09T03:19:22.202Z,9.03
2024-05-09T03:20:27.581Z,9.04
2024-05-09T03:21:21.933Z,9.06
2024-05-09T03:22:21.965Z,9.06
2024-05-09T03:23:21.956Z,9.01
2024-05-09T03:24:21.951Z,9.00
2024-05-09T03:25:21.942Z,9.00
2024-05-09T03:26:21.966Z,8.96
2024-05-09T03:27:21.880Z,8.97
2024-05-09T03:28:21.873Z,8.96
2024-05-09T03:29:22.014Z,8.96
2024-05-09T03:30:30.181Z,8.93
2024-05-09T03:31:21.841Z,8.93
2024-05-09T03:32:21.947Z,8.91
2024-05-09T03:33:22.295Z,8.89
2024-05-09T03:34:21.901Z,8.89
2024-05-09T03:35:21.957Z,8.88
2024-05-09T03:36:21.806Z,8.88
2024-05-09T03:37:21.773Z,8.91
2024-05-09T03:38:21.930Z,8.88
2024-05-09T03:39:21.792Z,8.86
2024-05-09T03:40:26.511Z,8.86
2024-05-09T03:41:21.786Z,8.85
2024-05-09T03:42:21.721Z,8.86
2024-05-09T03:43:21.761Z,8.83
2024-05-09T03:44:21.795Z,8.83
2024-05-09T03:45:21.691Z,8.82
2024-05-09T03:46:21.800Z,8.83
2024-05-09T03:47:21.901Z,8.82
2024-05-09T03:48:21.958Z,8.82
2024-05-09T03:49:22.216Z,8.82
2024-05-09T03:50:29.892Z,8.82
2024-05-09T03:51:21.640Z,8.80
2024-05-09T03:52:21.663Z,8.79
2024-05-09T03:53:21.728Z,8.78
2024-05-09T03:54:21.614Z,8.79
2024-05-09T03:55:21.606Z,8.78
2024-05-09T03:56:21.639Z,8.80
2024-05-09T03:57:21.613Z,8.78
2024-05-09T03:58:21.621Z,8.80
2024-05-09T03:59:21.640Z,8.80
2024-05-09T04:00:30.741Z,8.80
2024-05-09T04:01:21.600Z,8.80
2024-05-09T04:02:21.675Z,8.79
2024-05-09T04:03:21.712Z,8.78
2024-05-09T04:04:21.556Z,8.79
2024-05-09T04:05:21.528Z,8.79
2024-05-09T04:06:21.589Z,8.80
2024-05-09T04:07:21.494Z,8.79
2024-05-09T04:08:21.616Z,8.79
2024-05-09T04:09:21.497Z,8.79
2024-05-09T04:10:27.955Z,8.79
2024-05-09T04:11:21.645Z,8.78
2024-05-09T04:12:21.517Z,8.80
2024-05-09T04:13:21.430Z,8.82
2024-05-09T04:14:22.457Z,8.82
2024-05-09T04:15:21.528Z,8.82
2024-05-09T04:16:21.430Z,8.80
2024-05-09T04:17:21.449Z,8.80
2024-05-09T04:18:21.519Z,8.79
2024-05-09T04:19:21.690Z,8.78
2024-05-09T04:20:32.528Z,8.78
2024-05-09T04:21:21.371Z,8.79
2024-05-09T04:22:21.375Z,8.80
2024-05-09T04:23:21.376Z,8.82
2024-05-09T04:24:21.352Z,8.83
2024-05-09T04:25:21.390Z,8.86
2024-05-09T04:26:21.426Z,8.85
2024-05-09T04:27:21.430Z,8.86
2024-05-09T04:28:21.443Z,8.83
2024-05-09T04:29:21.399Z,8.85
2024-05-09T04:30:30.260Z,8.86
2024-05-09T04:31:21.252Z,8.88
2024-05-09T04:32:21.582Z,8.89
2024-05-09T04:33:21.514Z,8.89
2024-05-09T04:34:21.450Z,8.91
2024-05-09T04:35:21.342Z,8.93
2024-05-09T04:36:21.236Z,8.94
2024-05-09T04:37:21.215Z,8.96
2024-05-09T04:38:21.305Z,8.97
2024-05-09T04:39:21.236Z,8.98
2024-05-09T04:40:28.335Z,8.98
2024-05-09T04:41:21.221Z,9.01
2024-05-09T04:42:21.220Z,9.01
2024-05-09T04:43:21.314Z,9.04
2024-05-09T04:44:21.256Z,9.04
2024-05-09T04:45:21.137Z,9.10
2024-05-09T04:46:21.111Z,9.12
2024-05-09T04:47:21.327Z,9.17
2024-05-09T04:48:21.326Z,9.19
2024-05-09T04:49:21.211Z,9.20
2024-05-09T04:50:29.943Z,9.24
2024-05-09T04:51:21.081Z,9.24
2024-05-09T04:52:21.087Z,9.24
2024-05-09T04:53:21.146Z,9.24
2024-05-09T04:54:30.111Z,9.26
2024-05-09T04:55:21.042Z,9.27
2024-05-09T04:56:21.074Z,9.31
2024-05-09T04:57:21.145Z,9.35
2024-05-09T04:58:21.108Z,9.35
2024-05-09T04:59:21.013Z,9.40
2024-05-09T05:00:28.632Z,9.38
2024-05-09T05:01:21.004Z,9.41
2024-05-09T05:02:21.115Z,9.42
2024-05-09T05:03:21.279Z,9.41
2024-05-09T05:04:21.007Z,9.40
2024-05-09T05:05:21.048Z,9.44
2024-05-09T05:06:20.922Z,9.45
2024-05-09T05:07:21.015Z,9.49
2024-05-09T05:08:20.953Z,9.50
2024-05-09T05:09:20.950Z,9.53
2024-05-09T05:10:25.538Z,9.55
2024-05-09T05:11:20.998Z,9.55
2024-05-09T05:12:21.141Z,9.58
2024-05-09T05:13:22.184Z,9.59
2024-05-09T05:14:20.887Z,9.60
2024-05-09T05:15:20.864Z,9.62
2024-05-09T05:16:20.893Z,9.63
2024-05-09T05:17:21.001Z,9.67
2024-05-09T05:18:20.900Z,9.67
2024-05-09T05:19:20.949Z,9.70
2024-05-09T05:20:27.549Z,9.73
2024-05-09T05:21:21.070Z,9.73
2024-05-09T05:22:20.779Z,9.74
2024-05-09T05:23:20.945Z,9.75
2024-05-09T05:24:20.753Z,9.75
2024-05-09T05:25:20.782Z,9.78
2024-05-09T05:26:20.831Z,9.80
2024-05-09T05:27:20.747Z,9.81
2024-05-09T05:28:20.727Z,9.85
2024-05-09T05:29:21.085Z,9.85
2024-05-09T05:30:25.290Z,9.88
2024-05-09T05:31:20.743Z,9.88
2024-05-09T05:32:20.813Z,9.89
2024-05-09T05:33:20.944Z,9.92
2024-05-09T05:34:20.667Z,9.93
2024-05-09T05:35:20.776Z,9.95
2024-05-09T05:36:20.736Z,9.98
2024-05-09T05:37:20.691Z,10.04
2024-05-09T05:38:23.887Z,10.09
2024-05-09T05:39:20.726Z,10.11
2024-05-09T05:40:28.220Z,10.14
2024-05-09T05:41:20.660Z,10.17
2024-05-09T05:42:20.594Z,10.20
2024-05-09T05:43:20.590Z,10.26
2024-05-09T05:44:20.717Z,10.31
2024-05-09T05:45:20.583Z,10.35
2024-05-09T05:46:20.546Z,10.42
2024-05-09T05:47:20.689Z,10.46
2024-05-09T05:48:20.736Z,10.57
2024-05-09T05:49:20.705Z,10.88
2024-05-09T05:50:27.538Z,11.42
2024-05-09T05:51:20.624Z,11.96
2024-05-09T05:52:20.490Z,12.40
2024-05-09T05:53:20.591Z,12.81
2024-05-09T05:54:20.517Z,13.14
2024-05-09T05:55:20.475Z,13.43
2024-05-09T05:56:20.559Z,13.54
2024-05-09T05:57:20.534Z,13.63
2024-05-09T05:58:20.468Z,13.68
2024-05-09T05:59:20.463Z,13.73
2024-05-09T06:00:29.283Z,13.76
2024-05-09T06:01:20.460Z,13.86
2024-05-09T06:02:20.605Z,13.91
2024-05-09T06:03:20.451Z,13.99
2024-05-09T06:04:20.383Z,14.08
2024-05-09T06:05:20.400Z,14.19
2024-05-09T06:06:20.373Z,14.35
2024-05-09T06:07:20.386Z,14.49
2024-05-09T06:08:20.640Z,14.67
2024-05-09T06:09:20.314Z,14.82
2024-05-09T06:10:25.489Z,14.91
2024-05-09T06:11:20.419Z,14.98
2024-05-09T06:12:20.421Z,15.07
2024-05-09T06:13:20.293Z,15.15
2024-05-09T06:14:20.302Z,15.18
2024-05-09T06:15:20.292Z,15.18
2024-05-09T06:16:20.277Z,15.18
2024-05-09T06:17:20.443Z,15.18
2024-05-09T06:18:20.490Z,15.20
2024-05-09T06:19:20.520Z,15.25
2024-05-09T06:20:27.126Z,15.34
2024-05-09T06:21:20.293Z,15.40
2024-05-09T06:22:20.235Z,15.44
2024-05-09T06:23:20.257Z,15.48
2024-05-09T06:24:20.192Z,15.49
2024-05-09T06:25:20.174Z,15.48
2024-05-09T06:26:20.232Z,15.52
2024-05-09T06:27:20.146Z,15.59
2024-05-09T06:28:20.139Z,15.64
2024-05-09T06:29:20.275Z,15.70
2024-05-09T06:30:26.338Z,15.77
2024-05-09T06:31:20.145Z,15.85
2024-05-09T06:32:20.265Z,15.98
2024-05-09T06:33:20.358Z,16.16
2024-05-09T06:34:20.350Z,16.29
2024-05-09T06:35:20.196Z,16.34
2024-05-09T06:36:20.236Z,16.40
2024-05-09T06:37:20.083Z,16.47
2024-05-09T06:38:20.375Z,16.52
2024-05-09T06:39:20.093Z,16.57
2024-05-09T06:40:25.705Z,16.60
2024-05-09T06:41:20.064Z,16.65
2024-05-09T06:42:20.039Z,16.65
2024-05-09T06:43:20.224Z,16.57
2024-05-09T06:44:20.161Z,16.52
2024-05-09T06:45:20.000Z,16.48
2024-05-09T06:46:19.975Z,16.47
2024-05-09T06:47:20.034Z,16.47
2024-05-09T06:48:20.638Z,16.47
2024-05-09T06:49:20.229Z,16.51
2024-05-09T06:50:24.148Z,16.57
2024-05-09T06:51:20.003Z,16.66
2024-05-09T06:52:19.989Z,16.78
2024-05-09T06:53:19.989Z,16.96
2024-05-09T06:54:19.974Z,17.14
2024-05-09T06:55:19.879Z,17.32
2024-05-09T06:56:20.067Z,17.40
2024-05-09T06:57:20.638Z,17.53
2024-05-09T06:58:19.848Z,17.66
2024-05-09T06:59:19.898Z,17.76
2024-05-09T07:00:27.473Z,17.91
2024-05-09T07:01:19.957Z,18.14
2024-05-09T07:02:19.909Z,18.44
2024-05-09T07:03:20.255Z,18.79
2024-05-09T07:04:20.151Z,19.20
2024-05-09T07:05:19.931Z,19.55
2024-05-09T07:06:19.839Z,19.89
2024-05-09T07:07:19.797Z,20.25
2024-05-09T07:08:19.897Z,20.63
2024-05-09T07:09:19.782Z,21.12
2024-05-09T07:10:28.406Z,21.59
2024-05-09T07:11:19.881Z,22.08
2024-05-09T07:12:19.846Z,22.57
2024-05-09T07:13:19.856Z,23.01
2024-05-09T07:14:19.749Z,23.42
2024-05-09T07:15:19.719Z,23.82
2024-05-09T07:16:19.788Z,24.27
2024-05-09T07:17:19.857Z,24.61
2024-05-09T07:18:20.561Z,24.90
2024-05-09T07:19:19.843Z,25.22
2024-05-09T07:20:27.505Z,25.48
2024-05-09T07:21:19.895Z,25.72
2024-05-09T07:22:19.660Z,26.03
2024-05-09T07:23:19.812Z,26.32
2024-05-09T07:24:19.669Z,26.66
2024-05-09T07:25:19.725Z,27.02
2024-05-09T07:26:19.732Z,27.35
2024-05-09T07:27:19.681Z,27.71
2024-05-09T07:28:19.884Z,27.95
2024-05-09T07:29:19.598Z,28.15
2024-05-09T07:30:26.990Z,28.28
2024-05-09T07:31:19.656Z,28.42
2024-05-09T07:32:19.721Z,28.65
2024-05-09T07:33:21.179Z,29.05
2024-05-09T07:34:19.785Z,29.44
2024-05-09T07:35:20.676Z,29.71
2024-05-09T07:36:19.562Z,30.01
2024-05-09T07:37:19.534Z,30.38
2024-05-09T07:38:19.679Z,30.68
2024-05-09T07:39:19.529Z,30.88
2024-05-09T07:40:28.581Z,31.04
2024-05-09T07:41:19.588Z,31.28
2024-05-09T07:42:19.484Z,31.49
2024-05-09T07:43:19.491Z,31.72
2024-05-09T07:44:20.203Z,31.97
2024-05-09T07:45:39.692Z,32.22
2024-05-09T07:47:14.540Z,32.51
2024-05-09T07:50:34.271Z,32.71
2024-05-09T07:53:32.474Z,33.03
2024-05-09T07:53:49.493Z,33.75
2024-05-09T07:54:00.527Z,33.97
2024-05-09T07:54:56.476Z,34.09
2024-05-09T07:55:56.882Z,34.06
2024-05-09T07:56:56.469Z,34.05
2024-05-09T07:57:56.114Z,34.12
2024-05-09T07:58:56.444Z,34.08
2024-05-09T07:59:56.099Z,34.05
2024-05-09T08:00:56.232Z,34.11
2024-05-09T08:01:56.229Z,34.12
2024-05-09T08:02:56.187Z,34.03
2024-05-09T08:03:56.359Z,34.05
2024-05-09T08:04:56.214Z,34.09
2024-05-09T08:05:56.108Z,34.30
2024-05-09T08:06:56.070Z,34.48
2024-05-09T08:07:56.016Z,34.63
2024-05-09T08:08:56.867Z,34.75
2024-05-09T08:09:56.226Z,34.94
2024-05-09T08:10:56.056Z,35.10
2024-05-09T08:11:56.025Z,35.24
2024-05-09T08:12:56.056Z,35.36
2024-05-09T08:13:56.015Z,35.39
2024-05-09T08:14:56.096Z,35.32
2024-05-09T08:15:56.024Z,35.37
2024-05-09T08:16:55.981Z,35.42
2024-05-09T08:17:56.370Z,35.54
2024-05-09T08:18:56.193Z,35.61
2024-05-09T08:19:55.929Z,35.65
2024-05-09T08:20:55.911Z,35.73
2024-05-09T08:21:55.982Z,35.73
2024-05-09T08:22:55.956Z,35.69
2024-05-09T08:23:55.920Z,35.65
2024-05-09T08:24:55.977Z,35.76
2024-05-09T08:25:55.870Z,35.78
2024-05-09T08:26:55.918Z,35.85
2024-05-09T08:27:55.954Z,35.83
2024-05-09T08:28:55.865Z,35.87
2024-05-09T08:29:55.878Z,35.89
2024-05-09T08:30:55.983Z,35.93
2024-05-09T08:31:56.001Z,36.02
2024-05-09T08:32:55.910Z,35.81
2024-05-09T08:33:55.949Z,35.81
2024-05-09T08:34:55.950Z,35.77
2024-05-09T08:35:55.815Z,35.66
2024-05-09T08:36:57.574Z,35.71
2024-05-09T08:37:55.973Z,35.84
2024-05-09T08:38:55.787Z,35.96
2024-05-09T08:39:55.863Z,36.12
2024-05-09T08:40:55.886Z,36.16
2024-05-09T08:41:55.779Z,36.21
2024-05-09T08:42:55.860Z,36.16
2024-05-09T08:43:55.723Z,36.18
2024-05-09T08:44:55.762Z,36.22
2024-05-09T08:45:55.769Z,36.25
2024-05-09T08:46:56.490Z,36.33
2024-05-09T08:47:55.834Z,36.35
2024-05-09T08:48:55.884Z,36.28
2024-05-09T08:49:55.707Z,36.27
2024-05-09T08:50:55.753Z,36.28
2024-05-09T08:51:55.748Z,36.28
2024-05-09T08:52:55.681Z,36.18
2024-05-09T08:53:55.685Z,36.03
2024-05-09T08:54:55.949Z,35.89
2024-05-09T08:55:55.691Z,35.73
2024-05-09T08:56:55.650Z,35.59
2024-05-09T08:57:55.651Z,35.52
2024-05-09T08:58:55.638Z,35.46
2024-05-09T08:59:55.706Z,35.43
2024-05-09T09:00:55.719Z,35.47
2024-05-09T09:01:55.770Z,35.47
2024-05-09T09:02:55.670Z,35.42
2024-05-09T09:03:55.744Z,35.40
2024-05-09T09:04:55.691Z,35.37
2024-05-09T09:05:55.579Z,35.37
2024-05-09T09:06:58.215Z,35.32
2024-05-09T09:07:55.608Z,35.24
2024-05-09T09:08:55.592Z,34.40
2024-05-09T09:09:55.668Z,34.15
2024-05-09T09:10:55.573Z,34.30
2024-05-09T09:11:55.548Z,34.31
2024-05-09T09:12:55.661Z,34.26
2024-05-09T09:13:55.557Z,34.16
2024-05-09T09:14:55.517Z,33.96
2024-05-09T09:15:55.542Z,33.92
2024-05-09T09:16:55.492Z,33.89
2024-05-09T09:17:55.635Z,33.77
2024-05-09T09:18:55.673Z,33.75
2024-05-09T09:19:55.636Z,33.66
2024-05-09T09:20:55.516Z,33.60
2024-05-09T09:21:55.523Z,33.53
2024-05-09T09:22:55.516Z,33.37
2024-05-09T09:23:55.527Z,33.21
2024-05-09T09:24:55.447Z,33.02
2024-05-09T09:25:55.436Z,32.85
2024-05-09T09:26:55.413Z,32.69
2024-05-09T09:27:55.544Z,32.27
2024-05-09T09:28:55.400Z,31.99
2024-05-09T09:29:55.407Z,31.84
2024-05-09T09:30:55.395Z,31.74
2024-05-09T09:31:55.394Z,31.60
2024-05-09T09:32:55.570Z,31.54
2024-05-09T09:33:55.643Z,31.53
2024-05-09T09:34:55.402Z,31.50
2024-05-09T09:35:55.373Z,31.54
2024-05-09T09:36:55.440Z,31.54
2024-05-09T09:37:55.410Z,31.42
2024-05-09T09:38:55.339Z,31.40
2024-05-09T09:39:55.379Z,31.32
2024-05-09T09:40:55.340Z,31.34
2024-05-09T09:41:55.349Z,31.03
2024-05-09T09:42:55.304Z,30.57
2024-05-09T09:43:55.298Z,30.13
2024-05-09T09:45:03.797Z,29.76
2024-05-09T09:45:55.552Z,29.37
2024-05-09T09:46:55.313Z,29.02
2024-05-09T09:47:55.332Z,28.61
2024-05-09T09:48:55.425Z,28.20
2024-05-09T09:49:55.308Z,27.88
2024-05-09T09:50:55.308Z,27.55
2024-05-09T09:51:55.386Z,27.68
2024-05-09T09:52:55.236Z,27.96
2024-05-09T09:53:55.208Z,28.15
2024-05-09T09:54:55.246Z,28.27
2024-05-09T09:55:55.242Z,28.48
2024-05-09T09:56:55.186Z,28.61
2024-05-09T09:57:55.289Z,28.77
2024-05-09T09:58:55.204Z,28.88
2024-05-09T09:59:55.224Z,28.95
2024-05-09T10:00:55.418Z,28.95
2024-05-09T10:01:55.339Z,28.94
2024-05-09T10:02:55.189Z,28.97
2024-05-09T10:03:55.336Z,29.07
2024-05-09T10:04:55.431Z,29.25
2024-05-09T10:05:55.183Z,29.41
2024-05-09T10:06:55.103Z,29.39
2024-05-09T10:07:55.086Z,29.33
2024-05-09T10:08:55.093Z,29.37
2024-05-09T10:09:55.262Z,29.35
2024-05-09T10:10:55.390Z,29.42
2024-05-09T10:11:59.990Z,29.36
2024-05-09T10:12:55.140Z,29.36
2024-05-09T10:13:55.148Z,29.37
2024-05-09T10:14:55.171Z,29.37
2024-05-09T10:15:55.191Z,29.42
2024-05-09T10:16:55.075Z,29.45
2024-05-09T10:17:55.110Z,29.48
2024-05-09T10:18:55.339Z,29.52
2024-05-09T10:19:55.896Z,29.44
2024-05-09T10:20:54.966Z,29.36
2024-05-09T10:21:55.019Z,29.37
2024-05-09T10:22:54.934Z,29.37
2024-05-09T10:23:54.968Z,29.42
2024-05-09T10:24:54.996Z,29.42
2024-05-09T10:25:54.912Z,29.44
2024-05-09T10:26:54.923Z,29.41
2024-05-09T10:27:54.979Z,29.41
2024-05-09T10:28:54.978Z,29.23
2024-05-09T10:29:54.933Z,28.98
2024-05-09T10:30:55.003Z,28.61
2024-05-09T10:31:54.913Z,27.98
2024-05-09T10:32:55.017Z,27.74
2024-05-09T10:33:55.192Z,27.71
2024-05-09T10:34:54.961Z,27.46
2024-05-09T10:35:54.849Z,27.27
2024-05-09T10:36:55.354Z,27.08
2024-05-09T10:37:54.894Z,26.91
2024-05-09T10:38:54.809Z,26.72
2024-05-09T10:39:54.857Z,26.61
2024-05-09T10:40:54.785Z,26.53
2024-05-09T10:41:54.808Z,26.44
2024-05-09T10:42:54.912Z,26.36
2024-05-09T10:43:54.815Z,26.28
2024-05-09T10:44:54.817Z,26.21
2024-05-09T10:45:54.852Z,25.98
2024-05-09T10:46:55.073Z,25.82
2024-05-09T10:47:54.961Z,25.66
2024-05-09T10:48:54.843Z,25.46
2024-05-09T10:49:54.863Z,25.31
2024-05-09T10:50:54.699Z,25.20
2024-05-09T10:51:54.922Z,25.07
2024-05-09T10:52:54.680Z,24.94
2024-05-09T10:53:54.735Z,24.89
2024-05-09T10:54:54.741Z,24.90
2024-05-09T10:55:54.717Z,24.89
2024-05-09T10:56:54.726Z,24.84
2024-05-09T10:57:54.664Z,24.84
2024-05-09T10:58:54.632Z,24.80
2024-05-09T10:59:54.660Z,24.71
2024-05-09T11:00:54.741Z,24.66
2024-05-09T11:01:54.776Z,24.64
2024-05-09T11:02:54.675Z,24.63
2024-05-09T11:03:54.722Z,24.66
2024-05-09T11:04:54.641Z,24.64
2024-05-09T11:05:54.708Z,24.56
2024-05-09T11:06:54.607Z,24.48
2024-05-09T11:07:54.558Z,24.42
2024-05-09T11:08:54.622Z,24.31
2024-05-09T11:09:54.643Z,24.06
2024-05-09T11:10:54.662Z,23.87
2024-05-09T11:11:54.638Z,23.79
2024-05-09T11:12:54.570Z,23.64
2024-05-09T11:13:54.593Z,23.57
2024-05-09T11:14:54.575Z,23.59
2024-05-09T11:15:54.858Z,23.59
2024-05-09T11:16:54.456Z,23.62
2024-05-09T11:17:54.552Z,23.68
2024-05-09T11:18:54.738Z,23.75
2024-05-09T11:19:54.552Z,23.78
2024-05-09T11:20:54.472Z,23.79
2024-05-09T11:21:54.484Z,23.75
2024-05-09T11:22:54.408Z,23.68
2024-05-09T11:23:54.410Z,23.62
2024-05-09T11:24:54.547Z,23.60
2024-05-09T11:25:54.389Z,23.62
2024-05-09T11:26:54.505Z,23.62
2024-05-09T11:27:54.536Z,23.68
2024-05-09T11:28:54.508Z,23.74
2024-05-09T11:29:54.427Z,23.74
2024-05-09T11:30:54.408Z,23.79
2024-05-09T11:31:54.420Z,23.77
2024-05-09T11:32:54.435Z,23.77
2024-05-09T11:33:54.584Z,23.78
2024-05-09T11:34:54.315Z,23.72
2024-05-09T11:35:54.291Z,23.68
2024-05-09T11:36:54.338Z,23.57
2024-05-09T11:37:54.269Z,23.50
2024-05-09T11:38:54.320Z,23.39
2024-05-09T11:39:54.274Z,23.31
2024-05-09T11:40:54.300Z,23.15
2024-05-09T11:41:54.319Z,23.14
2024-05-09T11:42:54.345Z,23.12
2024-05-09T11:43:54.291Z,23.11
2024-05-09T11:44:54.308Z,23.15
2024-05-09T11:45:54.223Z,23.18
2024-05-09T11:46:54.184Z,23.19
2024-05-09T11:47:54.355Z,23.14
2024-05-09T11:48:54.274Z,23.07
2024-05-09T11:49:54.213Z,23.06
2024-05-09T11:50:54.154Z,23.01
2024-05-09T11:51:54.285Z,22.93
2024-05-09T11:52:54.161Z,22.86
2024-05-09T11:53:54.173Z,22.85
2024-05-09T11:54:54.172Z,22.82
2024-05-09T11:55:54.151Z,22.78
2024-05-09T11:56:54.142Z,22.78
2024-05-09T11:57:54.179Z,22.75
2024-05-09T11:58:54.201Z,22.74
2024-05-09T11:59:54.076Z,22.67
2024-05-09T12:00:54.137Z,22.57
2024-05-09T12:01:54.182Z,22.44
2024-05-09T12:02:54.080Z,22.36
2024-05-09T12:03:54.310Z,22.31
2024-05-09T12:04:54.141Z,22.33
2024-05-09T12:05:54.081Z,22.31
2024-05-09T12:06:54.101Z,22.30
2024-05-09T12:07:54.038Z,22.31
2024-05-09T12:08:54.084Z,22.31
2024-05-09T12:09:54.144Z,22.35
2024-05-09T12:10:54.199Z,22.30
2024-05-09T12:11:54.016Z,22.31
2024-05-09T12:12:54.020Z,22.29
2024-05-09T12:13:53.998Z,22.26
2024-05-09T12:14:53.934Z,22.26
2024-05-09T12:15:54.052Z,22.27
2024-05-09T12:16:54.002Z,22.26
2024-05-09T12:17:54.954Z,22.24
2024-05-09T12:18:54.139Z,22.24
2024-05-09T12:19:53.943Z,22.24
2024-05-09T12:20:54.020Z,22.24
2024-05-09T12:21:53.993Z,22.24
2024-05-09T12:22:53.871Z,22.23
2024-05-09T12:23:53.901Z,22.23
2024-05-09T12:24:53.906Z,22.20
2024-05-09T12:25:53.843Z,22.17
2024-05-09T12:26:53.879Z,22.17
2024-05-09T12:27:53.946Z,22.17
2024-05-09T12:28:53.892Z,22.17
2024-05-09T12:29:53.879Z,22.15
2024-05-09T12:30:53.925Z,22.14
2024-05-09T12:31:53.836Z,22.15
2024-05-09T12:32:54.002Z,22.20
2024-05-09T12:33:53.977Z,22.19
2024-05-09T12:34:53.776Z,22.20
2024-05-09T12:35:53.854Z,22.23
2024-05-09T12:36:53.827Z,22.23
2024-05-09T12:37:53.722Z,22.24
2024-05-09T12:38:53.887Z,22.24
2024-05-09T12:39:53.736Z,22.26
2024-05-09T12:40:53.853Z,22.24
2024-05-09T12:41:53.689Z,22.24
2024-05-09T12:42:53.772Z,22.23
2024-05-09T12:43:53.734Z,22.24
2024-05-09T12:44:53.785Z,22.27
2024-05-09T12:45:53.747Z,22.27
2024-05-09T12:46:53.781Z,22.27
2024-05-09T12:47:53.842Z,22.23
2024-05-09T12:48:53.963Z,22.14
2024-05-09T12:49:53.692Z,22.09
2024-05-09T12:50:53.613Z,22.06
2024-05-09T12:51:53.627Z,22.05
2024-05-09T12:52:53.636Z,22.02
2024-05-09T12:53:53.625Z,21.96
2024-05-09T12:54:53.603Z,21.90
2024-05-09T12:55:57.244Z,21.86
2024-05-09T12:56:53.600Z,21.85
2024-05-09T12:57:53.707Z,21.85
2024-05-09T12:58:53.589Z,21.81
2024-05-09T12:59:53.564Z,21.82
2024-05-09T13:00:53.899Z,21.81
2024-05-09T13:01:54.094Z,21.77
2024-05-09T13:02:53.612Z,21.77
2024-05-09T13:03:53.802Z,21.74